Terminal Aerodrome Forecast
Issued by NWS Omaha/Valley, NE

Home | Current Version | Previous Version | Text Only | Print | Product List | Glossary Off
Versions: 1 2 3 4 5 6 7 8 9 10 11 12 13 14 15 16 17 18 19 20 21 22 23 24 25 26

052
FTUS43 KOAX 202320
TAFOFK
TAF
KOFK 202320Z 2100/2124 12006KT P6SM SKC
     FM211000 13008KT P6SM SCT250 WS020/21030KT
     FM211400 17012KT P6SM SCT250=

USA.gov is the U.S. government's official web portal to all federal, state and local government web resources and services.